Not for real navigation | The accuracy of this data is not assured | See disclaimer for more information
ICAO NAME COUNTRY WIND Kt GUST Kt VIS TEMP/DEW BARO
EGPM Scatsa / Shetland Island United Kingdom 32 43 2400 7/5 28.20
EGPM 170350Z AUTO 22032G43KT 2400 +RA BKN017/// 07/05 Q0955
EFIV Ivalo Finland 5 0 6000 -1/-2 28.23
EFIV 170350Z AUTO 01005KT 6000 -SN BKN009 OVC028 M01/M02 Q0956
EFKT Kittila Finland 6 0 9999 -1/-1 28.23
EFKT 170350Z AUTO 30006KT 270V340 9999 -SN BKN006 OVC024 M01/M01 Q0956 REFZRA
EKVG Soervaag / Vagar Denmark 9 0 9999 5/2 28.23
EKVG 170350Z AUTO 34009KT 9999 -RA FEW017/// SCT024/// SCT130/// 05/02 Q0956
EFET Enontekio Finland 9 0 9999 -3/-4 28.26
EFET 170350Z AUTO 32009KT 9999 FEW005 BKN041 M03/M04 Q0957

Show more

Close Menu